Eckhart Mines, Maryland
Current Conditions -  °F | °C
As of 1:40 PM on Saturday 25 Oct 2014 (Local Time) from KCBE Reporting Station
Clear Clear  
Wind Chill: 70°   Ceiling: Unl
Heat Index: 70°   Visibility: 10mi
Dew Point: 43°   Wind: 12mph
Humidity: 38%   Direction: 280°W
Pressure: 29.9"   Gusts: 16mph
Location:  39.65°N, 78.9°W
Report Text: KCBE 251740Z AUTO 28010G14KT 251V311 10SM CLR 21/06 A2990 RMK AO1
Loading
Personal Weather Stations






























Interactive Weather Map
Tropical Storm Tracking
New forecast layout! Learn more

10-Day Weather Forecast

Advertisements
Track Severe Weather on mobile